Time;durP1;ratioP1;P1;durP2;ratioP2;P2;SDS_P1;SDS_P2;PMS_P1;PMS_P2;Temp;Humidity;BMP_temperature;BMP_pressure;BME280_temperature;BME280_humidity;BME280_pressure;Samples;Min_cycle;Max_cycle;Signal;HPM_P1;HPM_P2
2022/12/23 00:02:34;;;;;;;1.80;1.40;;;;;;;10.72;100.00;100581.81;10482195;28;20098;-79
2022/12/23 00:08:01;;;;;;;3.13;2.83;;;;;;;10.78;100.00;100576.78;10482115;28;20411;-79
2022/12/23 00:18:24;;;;;;;4.00;0.90;;;;;;;10.62;100.00;100579.88;10481643;28;20102;-80
2022/12/23 00:23:26;;;;;;;0.98;0.68;;;;;;;10.84;100.00;100577.72;10497847;28;20052;-80
2022/12/23 00:28:30;;;;;;;0.52;0.52;;;;;;;10.68;100.00;100590.34;10480851;28;20045;-80
2022/12/23 00:33:38;;;;;;;10.00;0.85;;;;;;;10.84;100.00;100588.94;10464080;28;20044;-79
2022/12/23 00:44:02;;;;;;;0.38;0.32;;;;;;;10.75;100.00;100593.88;10458694;28;20045;-80
2022/12/23 00:54:25;;;;;;;2.15;0.80;;;;;;;10.65;100.00;100598.00;10451876;28;20045;-80
2022/12/23 00:59:26;;;;;;;0.55;0.55;;;;;;;10.74;100.00;100605.03;10438778;28;20053;-79
2022/12/23 01:09:48;;;;;;;0.95;0.43;;;;;;;10.69;100.00;100610.09;10495437;28;20049;-79
2022/12/23 01:15:03;;;;;;;0.60;0.47;;;;;;;10.79;100.00;100618.91;10481954;28;20442;-79
2022/12/23 01:20:08;;;;;;;2.10;0.98;;;;;;;10.93;100.00;100624.31;10510496;28;20057;-79
2022/12/23 01:25:10;;;;;;;0.93;0.77;;;;;;;10.77;100.00;100631.72;10457261;28;20037;-78
2022/12/23 01:30:12;;;;;;;0.52;0.52;;;;;;;10.84;100.00;100632.75;10468487;28;20088;-79
2022/12/23 01:35:14;;;;;;;1.67;1.45;;;;;;;10.81;100.00;100632.66;10451998;28;20120;-78
2022/12/23 01:41:08;;;;;;;8.18;1.42;;;;;;;10.93;100.00;100632.94;10438358;28;20095;-78
2022/12/23 01:46:10;;;;;;;2.47;1.33;;;;;;;10.82;100.00;100641.28;10461099;28;20041;-80
2022/12/23 01:51:17;;;;;;;3.55;1.25;;;;;;;10.91;100.00;100644.03;10445898;28;20433;-79
2022/12/23 01:56:23;;;;;;;1.05;0.95;;;;;;;10.84;100.00;100648.19;10463585;28;20048;-79
2022/12/23 02:19:44;;;;;;;1.10;0.93;;;;;;;10.82;100.00;100664.47;10463417;28;20049;-79
2022/12/23 02:24:54;;;;;;;1.58;1.38;;;;;;;10.81;100.00;100665.31;10415037;28;20087;-78
2022/12/23 02:30:18;;;;;;;0.55;0.40;;;;;;;10.79;100.00;100675.59;10445399;28;20053;-79
2022/12/23 02:36:14;;;;;;;1.52;1.33;;;;;;;10.83;100.00;100681.69;10461374;28;20472;-78
2022/12/23 02:41:27;;;;;;;0.22;0.22;;;;;;;10.86;100.00;100684.31;10354246;28;20049;-78
2022/12/23 02:46:44;;;;;;;0.32;0.30;;;;;;;10.81;100.00;100698.81;10470214;28;20098;-79
2022/12/23 02:51:49;;;;;;;1.25;0.70;;;;;;;10.82;100.00;100706.56;10482456;28;20041;-84
2022/12/23 02:56:53;;;;;;;1.27;0.82;;;;;;;10.76;100.00;100716.75;10459481;28;20045;-83
2022/12/23 03:01:56;;;;;;;5.85;1.30;;;;;;;10.78;100.00;100725.38;10468750;28;20044;-83
2022/12/23 03:06:59;;;;;;;0.47;0.47;;;;;;;10.85;100.00;100723.78;10479729;28;20107;-83
2022/12/23 03:12:14;;;;;;;;;;;;;;;10.73;100.00;100722.72;10469292;28;20120;-83
2022/12/23 03:17:45;;;;;;;2.00;1.42;;;;;;;10.69;100.00;100736.34;10483328;28;19921;-84
2022/12/23 03:23:00;;;;;;;0.88;0.75;;;;;;;10.72;100.00;100739.00;10432788;28;20095;-83
2022/12/23 03:28:38;;;;;;;0.95;0.55;;;;;;;10.70;100.00;100740.66;10477433;28;20103;-84
2022/12/23 03:33:45;;;;;;;3.50;0.63;;;;;;;10.76;100.00;100745.09;10419036;28;20084;-84
2022/12/23 03:38:50;;;;;;;1.65;0.25;;;;;;;10.66;100.00;100735.41;10456874;28;20045;-84
2022/12/23 03:44:01;;;;;;;1.08;0.90;;;;;;;10.58;100.00;100725.78;10477520;28;20373;-83
2022/12/23 03:49:07;;;;;;;0.55;0.55;;;;;;;10.58;100.00;100728.38;10444743;28;20067;-84
2022/12/23 03:54:15;;;;;;;2.90;1.05;;;;;;;10.82;100.00;100721.16;10485498;28;20541;-84
2022/12/23 03:59:19;;;;;;;0.35;0.30;;;;;;;10.68;100.00;100714.00;10484750;28;20094;-84
2022/12/23 04:04:39;;;;;;;0.03;0.03;;;;;;;10.76;100.00;100720.19;10449865;28;20048;-83
2022/12/23 04:09:41;;;;;;;1.00;0.63;;;;;;;10.89;100.00;100715.31;10454598;28;20088;-84
2022/12/23 04:15:03;;;;;;;1.13;0.77;;;;;;;10.90;100.00;100714.47;10454755;28;20296;-84
2022/12/23 04:20:14;;;;;;;0.17;0.10;;;;;;;10.74;100.00;100714.16;10453011;28;20885;-84
2022/12/23 04:25:16;;;;;;;0.65;0.30;;;;;;;10.56;100.00;100724.91;10469155;28;20463;-82
2022/12/23 04:30:18;;;;;;;0.47;0.30;;;;;;;10.52;100.00;100732.53;10465445;28;20436;-82
2022/12/23 04:35:20;;;;;;;2.25;0.30;;;;;;;10.59;100.00;100740.41;10480003;28;20051;-83
2022/12/23 04:40:22;;;;;;;7.60;1.00;;;;;;;10.35;100.00;100750.13;10471711;28;20091;-83
2022/12/23 04:45:24;;;;;;;0.47;0.32;;;;;;;10.50;100.00;100781.41;10447673;28;20055;-83
2022/12/23 04:50:25;;;;;;;0.82;0.70;;;;;;;10.31;100.00;100782.66;10479083;28;20423;-83
2022/12/23 04:55:27;;;;;;;0.95;0.55;;;;;;;10.12;100.00;100769.28;10454949;28;20037;-83
2022/12/23 05:00:29;;;;;;;0.70;0.47;;;;;;;10.27;100.00;100767.94;10456215;28;20045;-83
2022/12/23 05:05:43;;;;;;;0.68;0.68;;;;;;;10.27;100.00;100760.22;10438907;28;20045;-82
2022/12/23 05:10:44;;;;;;;0.30;0.30;;;;;;;10.09;100.00;100756.34;10476110;28;20086;-83
2022/12/23 05:15:49;;;;;;;0.52;0.52;;;;;;;10.18;100.00;100758.28;10478849;28;20072;-84
2022/12/23 05:20:51;;;;;;;1.40;0.52;;;;;;;10.27;100.00;100747.34;10460487;28;20534;-84
2022/12/23 05:25:53;;;;;;;1.02;0.80;;;;;;;10.39;100.00;100739.09;10472410;28;20064;-84
2022/12/23 05:31:02;;;;;;;0.10;0.10;;;;;;;10.44;100.00;100740.06;10459696;28;20064;-83
2022/12/23 05:36:04;;;;;;;0.28;0.28;;;;;;;10.49;100.00;100759.09;10462724;28;20041;-82
2022/12/23 05:41:09;;;;;;;0.93;0.63;;;;;;;10.57;100.00;100754.09;10490042;28;20496;-83
2022/12/23 05:46:14;;;;;;;0.00;0.00;;;;;;;10.38;100.00;100765.66;10470250;28;20053;-83
2022/12/23 05:51:20;;;;;;;10.70;0.63;;;;;;;10.51;100.00;100772.00;10451975;28;20107;-84
2022/12/23 05:56:22;;;;;;;0.93;0.60;;;;;;;10.36;100.00;100786.22;10461968;28;20647;-84
2022/12/23 06:01:23;;;;;;;1.00;0.30;;;;;;;10.15;100.00;100800.28;10460749;28;20758;-84
2022/12/23 06:06:25;;;;;;;0.20;0.20;;;;;;;10.11;100.00;100803.59;10466035;28;20485;-83
2022/12/23 06:11:27;;;;;;;1.05;0.73;;;;;;;10.18;100.00;100794.34;10479731;28;20082;-83
2022/12/23 06:16:28;;;;;;;2.55;0.63;;;;;;;10.43;100.00;100795.84;10463644;28;20858;-83
2022/12/23 06:21:30;;;;;;;2.45;0.38;;;;;;;10.40;100.00;100785.47;10475265;28;20558;-83
2022/12/23 06:26:33;;;;;;;0.40;0.40;;;;;;;10.24;100.00;100778.19;10461300;28;20057;-82
2022/12/23 06:31:34;;;;;;;1.05;0.50;;;;;;;10.35;100.00;100774.16;10477451;28;20072;-83
2022/12/23 06:36:36;;;;;;;0.10;0.10;;;;;;;10.01;100.00;100770.75;10484178;28;20058;-83
2022/12/23 06:41:38;;;;;;;1.55;1.00;;;;;;;9.86;100.00;100790.91;10470222;28;20396;-82
2022/12/23 06:46:39;;;;;;;0.90;0.35;;;;;;;10.04;100.00;100780.25;10482874;28;20037;-82
2022/12/23 06:51:41;;;;;;;0.93;0.70;;;;;;;10.04;100.00;100775.09;10457950;28;20045;-83
2022/12/23 06:56:44;;;;;;;0.40;0.35;;;;;;;10.18;100.00;100778.00;10479573;28;20044;-82
2022/12/23 07:01:48;;;;;;;0.77;0.20;;;;;;;10.38;100.00;100771.69;10462812;28;20082;-83
2022/12/23 07:06:49;;;;;;;0.10;0.10;;;;;;;10.27;100.00;100757.66;10480138;28;20064;-82
2022/12/23 07:11:51;;;;;;;1.17;0.70;;;;;;;10.14;100.00;100767.66;10458632;28;20459;-83
2022/12/23 07:16:53;;;;;;;0.52;0.52;;;;;;;10.19;100.00;100790.03;10482400;28;20087;-82
2022/12/23 07:21:55;;;;;;;0.10;0.10;;;;;;;10.24;100.00;100806.50;10483691;28;20052;-82
2022/12/23 07:26:56;;;;;;;1.00;0.38;;;;;;;10.16;100.00;100832.03;10474997;28;20140;-82
2022/12/23 07:32:00;;;;;;;0.32;0.13;;;;;;;10.15;100.00;100831.19;10488565;28;20049;-82
2022/12/23 07:37:02;;;;;;;0.55;0.43;;;;;;;9.72;100.00;100850.56;10469116;28;20072;-82
2022/12/23 07:42:03;;;;;;;2.13;0.90;;;;;;;9.96;100.00;100855.53;10485813;28;20044;-82
2022/12/23 07:47:25;;;;;;;3.13;1.13;;;;;;;10.39;100.00;100835.22;10458348;28;20040;-82
2022/12/23 07:52:28;;;;;;;0.98;0.45;;;;;;;9.84;100.00;100829.44;10478942;28;20040;-82
2022/12/23 07:57:36;;;;;;;0.10;0.10;;;;;;;10.21;100.00;100835.59;10451828;28;20519;-82
2022/12/23 08:02:38;;;;;;;0.22;0.22;;;;;;;9.61;100.00;100855.41;10456224;28;20041;-83
2022/12/23 08:07:41;;;;;;;0.70;0.63;;;;;;;9.66;100.00;100865.81;10476241;28;20048;-83
2022/12/23 08:12:42;;;;;;;0.98;0.55;;;;;;;9.48;100.00;100856.75;10479366;28;20122;-83
2022/12/23 08:17:44;;;;;;;0.40;0.40;;;;;;;9.49;100.00;100858.47;10480596;28;20071;-83
2022/12/23 08:22:46;;;;;;;4.50;0.60;;;;;;;9.76;100.00;100867.84;10453014;28;20448;-82
2022/12/23 08:27:49;;;;;;;1.58;1.48;;;;;;;9.94;100.00;100856.34;10473242;28;20049;-82
2022/12/23 08:32:51;;;;;;;1.42;0.77;;;;;;;9.62;100.00;100861.44;10469121;28;20496;-82
2022/12/23 08:37:53;;;;;;;1.45;0.45;;;;;;;10.19;100.00;100849.25;10461924;28;20056;-83
2022/12/23 08:42:54;;;;;;;1.65;0.32;;;;;;;9.76;100.00;100852.41;10469926;28;20079;-83
2022/12/23 08:47:56;;;;;;;1.38;0.40;;;;;;;9.56;100.00;100861.25;10452289;28;20099;-83
2022/12/23 08:52:57;;;;;;;3.40;1.10;;;;;;;9.72;100.00;100868.56;10477995;28;20098;-84
2022/12/23 08:57:59;;;;;;;1.25;0.70;;;;;;;9.72;100.00;100860.00;10503587;28;20115;-84
2022/12/23 09:03:01;;;;;;;0.32;0.32;;;;;;;9.99;100.00;100821.28;10495628;28;20067;-84
2022/12/23 09:08:02;;;;;;;0.95;0.88;;;;;;;10.33;100.00;100822.16;10462078;28;20068;-84
2022/12/23 09:13:04;;;;;;;0.80;0.38;;;;;;;9.98;100.00;100806.69;10480198;28;20447;-84
2022/12/23 09:18:05;;;;;;;2.15;0.70;;;;;;;10.03;100.00;100810.25;10492317;28;20140;-84
2022/12/23 09:23:07;;;;;;;1.80;0.90;;;;;;;10.11;100.00;100816.47;10493180;28;20067;-84
2022/12/23 09:28:09;;;;;;;0.57;0.57;;;;;;;10.32;100.00;100802.41;10475211;28;20063;-83
2022/12/23 09:33:10;;;;;;;0.77;0.55;;;;;;;9.86;100.00;100802.06;10475005;28;20049;-83
2022/12/23 09:38:12;;;;;;;2.53;0.75;;;;;;;9.70;100.00;100834.22;10475306;28;20067;-83
2022/12/23 09:43:22;;;;;;;0.40;0.30;;;;;;;9.76;100.00;100847.25;10474554;28;20045;-83
2022/12/23 09:48:27;;;;;;;2.00;1.77;;;;;;;10.09;100.00;100830.13;10474383;28;20471;-83
2022/12/23 09:53:48;;;;;;;0.63;0.63;;;;;;;9.71;100.00;100843.69;10474575;28;20068;-83
2022/12/23 09:59:07;;;;;;;1.15;0.95;;;;;;;9.77;100.00;100851.59;10480567;28;20068;-83
2022/12/23 10:04:21;;;;;;;1.13;1.07;;;;;;;9.87;100.00;100845.00;10459164;28;20037;-83
2022/12/23 10:09:23;;;;;;;5.05;1.52;;;;;;;10.03;100.00;100835.13;10500715;28;20333;-83
2022/12/23 10:14:33;;;;;;;8.68;2.50;;;;;;;9.98;100.00;100816.97;10482002;28;20044;-83
2022/12/23 10:19:42;;;;;;;2.75;1.48;;;;;;;10.12;100.00;100810.50;10481224;28;20462;-82
2022/12/23 10:24:45;;;;;;;6.85;4.40;;;;;;;10.05;100.00;100788.00;10471311;28;20146;-88
2022/12/23 10:29:47;;;;;;;3.78;2.78;;;;;;;10.19;100.00;100764.31;10477038;28;20044;-83
2022/12/23 10:35:07;;;;;;;4.68;2.47;;;;;;;10.08;100.00;100746.91;10493185;28;20064;-83
2022/12/23 10:40:19;;;;;;;1.43;1.27;;;;;;;10.09;100.00;100737.47;10482003;28;20063;-82
2022/12/23 10:45:35;;;;;;;3.15;1.75;;;;;;;10.13;100.00;100735.00;10471456;28;20052;-87
2022/12/23 10:50:45;;;;;;;3.90;1.17;;;;;;;9.98;100.00;100739.75;10481871;28;20542;-87
2022/12/23 10:55:49;;;;;;;1.58;1.42;;;;;;;10.19;100.00;100739.44;10480600;28;20403;-87
2022/12/23 11:00:58;;;;;;;3.03;2.25;;;;;;;10.14;100.00;100717.84;10487335;28;20407;-87
2022/12/23 11:06:01;;;;;;;6.20;3.60;;;;;;;9.90;100.00;100721.56;10475197;28;20510;-86
2022/12/23 11:11:04;;;;;;;4.07;2.92;;;;;;;10.03;100.00;100722.72;10480074;28;20044;-86
2022/12/23 11:16:25;;;;;;;5.38;4.60;;;;;;;10.31;100.00;100732.00;10480349;28;20083;-86
2022/12/23 11:21:29;;;;;;;3.17;2.53;;;;;;;10.07;100.00;100714.25;10453389;28;20056;-86
2022/12/23 11:26:31;;;;;;;6.03;4.30;;;;;;;9.98;100.00;100703.72;10471544;28;20044;-87
2022/12/23 11:31:34;;;;;;;2.03;1.60;;;;;;;9.89;100.00;100713.78;10510925;28;20054;-85
2022/12/23 11:36:37;;;;;;;4.95;2.42;;;;;;;10.02;100.00;100715.84;10493752;28;20116;-87
2022/12/23 11:41:46;;;;;;;2.00;1.70;;;;;;;10.16;100.00;100701.59;10478523;28;20062;-87
2022/12/23 11:46:49;;;;;;;1.40;1.10;;;;;;;9.82;100.00;100700.75;10497444;28;20048;-86
2022/12/23 11:52:01;;;;;;;1.45;0.80;;;;;;;9.94;100.00;100719.94;10495378;28;20051;-87
2022/12/23 11:57:06;;;;;;;0.75;0.73;;;;;;;9.99;100.00;100701.19;10476948;28;20090;-87
2022/12/23 12:02:17;;;;;;;3.92;1.23;;;;;;;9.96;100.00;100695.97;10461749;28;20487;-87
2022/12/23 12:07:18;;;;;;;3.08;1.30;;;;;;;10.07;100.00;100698.81;10469466;28;20049;-87
2022/12/23 12:12:20;;;;;;;3.35;1.55;;;;;;;10.11;100.00;100658.59;10477059;28;20052;-87
2022/12/23 12:17:34;;;;;;;3.20;0.95;;;;;;;9.96;100.00;100648.78;10478441;28;20044;-87
2022/12/23 12:23:05;;;;;;;1.83;1.17;;;;;;;10.09;100.00;100635.34;10476742;28;20482;-87
2022/12/23 12:28:19;;;;;;;0.95;0.45;;;;;;;10.00;100.00;100627.44;10469812;28;20101;-87
2022/12/23 12:33:32;;;;;;;5.90;2.17;;;;;;;9.97;100.00;100615.38;10476265;28;20120;-86
2022/12/23 12:38:37;;;;;;;8.63;3.17;;;;;;;10.13;100.00;100600.25;10477800;28;20053;-86
2022/12/23 12:44:17;;;;;;;4.43;2.45;;;;;;;10.12;100.00;100583.97;10477132;28;20048;-86
2022/12/23 12:49:30;;;;;;;5.68;4.03;;;;;;;10.15;100.00;100562.56;10446998;28;20526;-85
2022/12/23 12:55:01;;;;;;;3.85;3.33;;;;;;;10.23;100.00;100550.72;10460354;28;20453;-85
2022/12/23 13:00:04;;;;;;;2.55;1.48;;;;;;;10.23;100.00;100535.28;10465575;28;20040;-86
2022/12/23 13:05:29;;;;;;;3.45;1.92;;;;;;;10.34;100.00;100514.91;10476147;28;20040;-85
2022/12/23 13:10:55;;;;;;;6.13;1.83;;;;;;;10.28;100.00;100497.63;10469890;28;20056;-86
2022/12/23 13:16:31;;;;;;;2.25;1.92;;;;;;;10.22;100.00;100491.50;10476032;28;20037;-86
2022/12/23 13:22:07;;;;;;;11.25;2.78;;;;;;;10.15;100.00;100481.06;10474866;28;20044;-87
2022/12/23 13:27:20;;;;;;;6.78;2.83;;;;;;;10.12;100.00;100468.13;10472653;28;20041;-87
2022/12/23 13:32:58;;;;;;;1.98;1.70;;;;;;;9.84;100.00;100474.38;10475852;28;20131;-87
2022/12/23 13:38:14;;;;;;;4.43;3.10;;;;;;;10.05;100.00;100484.28;10458656;28;20094;-86
2022/12/23 13:43:22;;;;;;;2.08;1.88;;;;;;;9.93;100.00;100456.56;10474454;28;20040;-85
2022/12/23 13:48:48;;;;;;;4.15;2.25;;;;;;;10.02;100.00;100443.00;10485598;28;20067;-81
2022/12/23 13:53:59;;;;;;;1.10;0.98;;;;;;;9.98;100.00;100421.50;10471653;28;20029;-81
2022/12/23 13:59:09;;;;;;;2.20;1.45;;;;;;;9.94;100.00;100418.84;10469970;28;20051;-80
2022/12/23 14:04:33;;;;;;;1.25;0.98;;;;;;;10.02;100.00;100412.13;10463676;28;20131;-81
2022/12/23 14:09:37;;;;;;;1.00;0.60;;;;;;;9.83;100.00;100396.34;10471338;28;20514;-81
2022/12/23 14:15:01;;;;;;;0.45;0.40;;;;;;;9.94;100.00;100386.25;10479875;28;20044;-82
2022/12/23 14:20:20;;;;;;;1.95;1.00;;;;;;;10.05;100.00;100393.34;10468049;28;20599;-82
2022/12/23 14:25:34;;;;;;;1.48;1.05;;;;;;;10.11;100.00;100386.59;10501056;28;20492;-82
2022/12/23 14:30:41;;;;;;;3.40;1.63;;;;;;;10.18;100.00;100397.00;10467582;28;20135;-82
2022/12/23 14:35:43;;;;;;;3.30;1.02;;;;;;;10.18;100.00;100377.28;10478430;28;20041;-82
2022/12/23 14:40:44;;;;;;;0.28;0.28;;;;;;;10.23;100.00;100369.66;10469398;28;20040;-82
2022/12/23 14:45:51;;;;;;;3.15;1.27;;;;;;;10.38;100.00;100375.13;10485989;28;20043;-82
2022/12/23 14:51:00;;;;;;;1.52;0.80;;;;;;;10.35;100.00;100351.84;10482911;28;20049;-82
2022/12/23 14:56:20;;;;;;;0.52;0.35;;;;;;;10.24;100.00;100335.34;10477333;28;20068;-81
2022/12/23 15:01:32;;;;;;;0.87;0.50;;;;;;;10.12;100.00;100316.25;10465321;28;20094;-81
2022/12/23 15:06:40;;;;;;;1.05;0.77;;;;;;;10.12;100.00;100313.69;10483376;28;20083;-81
2022/12/23 15:11:45;;;;;;;2.10;1.05;;;;;;;10.00;100.00;100316.03;10483650;28;20506;-81
2022/12/23 15:16:46;;;;;;;2.03;0.82;;;;;;;10.00;100.00;100313.47;10469734;28;20048;-81
2022/12/23 15:21:49;;;;;;;2.55;1.13;;;;;;;9.85;100.00;100298.59;10461015;28;20060;-81
2022/12/23 15:27:08;;;;;;;3.13;1.73;;;;;;;9.93;100.00;100289.31;10460198;28;20041;-81
2022/12/23 15:32:28;;;;;;;0.63;0.63;;;;;;;10.10;100.00;100296.47;10472581;28;20051;-81
2022/12/23 15:37:31;;;;;;;2.53;0.77;;;;;;;9.98;100.00;100297.97;10482103;28;20083;-81
2022/12/23 15:42:37;;;;;;;1.08;0.90;;;;;;;10.06;100.00;100280.13;10451305;28;20072;-80
2022/12/23 15:47:44;;;;;;;0.70;0.68;;;;;;;10.02;100.00;100304.03;10510215;28;20115;-81
2022/12/23 15:52:49;;;;;;;1.42;0.77;;;;;;;10.15;100.00;100306.03;10498669;28;20079;-82
2022/12/23 15:57:51;;;;;;;1.20;0.93;;;;;;;9.92;100.00;100315.88;10499742;28;20052;-80
2022/12/23 16:02:55;;;;;;;1.63;1.23;;;;;;;9.96;100.00;100324.53;10482348;28;20042;-83
2022/12/23 16:08:21;;;;;;;1.47;1.20;;;;;;;9.65;100.00;100329.94;10478789;28;20451;-82
2022/12/23 16:13:30;;;;;;;1.40;1.30;;;;;;;9.86;100.00;100332.91;10489811;28;20045;-82
2022/12/23 16:18:41;;;;;;;0.52;0.52;;;;;;;9.86;100.00;100336.34;10465224;28;20136;-81
2022/12/23 16:23:51;;;;;;;1.30;1.08;;;;;;;10.01;100.00;100322.91;10476474;28;20044;-81
2022/12/23 16:28:59;;;;;;;1.75;0.88;;;;;;;9.99;100.00;100304.00;10476755;28;20557;-81
2022/12/23 16:34:05;;;;;;;2.28;0.82;;;;;;;9.90;100.00;100291.84;10469741;28;20088;-81
2022/12/23 16:39:20;;;;;;;1.42;0.88;;;;;;;9.83;100.00;100293.41;10468213;28;20072;-81
2022/12/23 16:44:27;;;;;;;1.73;0.52;;;;;;;9.81;100.00;100289.94;10481313;28;20043;-81
2022/12/23 16:49:30;;;;;;;2.00;1.52;;;;;;;9.66;100.00;100302.50;10473782;28;20118;-80
2022/12/23 16:54:34;;;;;;;1.23;0.98;;;;;;;10.03;100.00;100326.38;10484731;28;20044;-81
2022/12/23 16:59:39;;;;;;;3.22;1.50;;;;;;;9.95;100.00;100313.38;10477415;28;20517;-81
2022/12/23 17:04:41;;;;;;;4.85;2.47;;;;;;;9.77;100.00;100329.31;10455547;28;20049;-81
2022/12/23 17:09:42;;;;;;;0.85;0.85;;;;;;;9.84;100.00;100315.75;10474554;28;20055;-80
2022/12/23 17:14:44;;;;;;;2.40;1.13;;;;;;;9.81;100.00;100320.81;10471433;28;20040;-80
2022/12/23 17:19:48;;;;;;;2.35;1.33;;;;;;;9.83;100.00;100326.88;10462803;28;20053;-81
2022/12/23 17:24:51;;;;;;;1.75;1.58;;;;;;;9.86;100.00;100338.91;10495745;28;20094;-80
2022/12/23 17:29:52;;;;;;;0.90;0.60;;;;;;;9.87;100.00;100335.50;10477857;28;20040;-80
2022/12/23 17:34:54;;;;;;;0.68;0.63;;;;;;;9.92;100.00;100353.63;10477762;28;20041;-81
2022/12/23 17:39:56;;;;;;;2.08;1.13;;;;;;;9.75;100.00;100355.84;10460979;28;20160;-81
2022/12/23 17:44:57;;;;;;;2.28;1.52;;;;;;;9.87;100.00;100350.06;10477127;28;20045;-80
2022/12/23 17:49:59;;;;;;;0.45;0.43;;;;;;;9.90;100.00;100363.00;10469286;28;20201;-81
2022/12/23 17:55:00;;;;;;;1.02;0.95;;;;;;;9.97;100.00;100377.72;10445619;28;20047;-81
2022/12/23 18:00:02;;;;;;;1.08;0.95;;;;;;;9.93;100.00;100373.38;10484174;28;20102;-80
2022/12/23 18:05:18;;;;;;;1.75;0.63;;;;;;;9.67;100.00;100374.56;10479172;28;20468;-79
2022/12/23 18:10:23;;;;;;;0.77;0.43;;;;;;;10.12;100.00;100390.03;10468277;28;20076;-79
2022/12/23 18:15:31;;;;;;;1.30;1.20;;;;;;;10.19;100.00;100378.13;10488501;28;20064;-80
2022/12/23 18:20:33;;;;;;;3.00;0.80;;;;;;;10.22;100.00;100378.22;10490201;28;20079;-81
2022/12/23 18:25:34;;;;;;;1.83;0.90;;;;;;;10.34;100.00;100381.00;10474035;28;20487;-80
2022/12/23 18:30:37;;;;;;;1.20;0.65;;;;;;;10.47;100.00;100380.41;10484811;28;20112;-80
2022/12/23 18:35:47;;;;;;;0.40;0.40;;;;;;;10.64;100.00;100387.56;10484651;28;20506;-80
2022/12/23 18:40:52;;;;;;;0.28;0.28;;;;;;;10.79;100.00;100395.56;10490619;28;20048;-81
2022/12/23 18:45:55;;;;;;;0.32;0.20;;;;;;;10.77;100.00;100394.66;10488224;28;20047;-80
2022/12/23 18:50:57;;;;;;;1.75;1.10;;;;;;;10.84;100.00;100390.50;10471107;28;20041;-80
2022/12/23 18:56:03;;;;;;;1.73;1.10;;;;;;;10.99;100.00;100396.75;10455124;28;20052;-80
2022/12/23 19:01:12;;;;;;;0.55;0.55;;;;;;;11.09;100.00;100381.44;10478990;28;20051;-81
2022/12/23 19:06:14;;;;;;;0.43;0.43;;;;;;;11.11;100.00;100395.22;10460575;28;20460;-81
2022/12/23 19:11:19;;;;;;;1.17;0.90;;;;;;;11.24;100.00;100393.69;10467786;28;20080;-81
2022/12/23 19:16:21;;;;;;;0.10;0.00;;;;;;;11.27;100.00;100398.91;10497696;28;20044;-80
2022/12/23 19:21:22;;;;;;;3.28;1.60;;;;;;;11.25;100.00;100400.56;10476863;28;20048;-81
2022/12/23 19:26:24;;;;;;;9.25;1.10;;;;;;;11.28;100.00;100402.38;10483534;28;20040;-81
2022/12/23 19:31:25;;;;;;;1.17;0.80;;;;;;;11.26;100.00;100404.03;10467611;28;20487;-81
2022/12/23 19:36:27;;;;;;;0.32;0.32;;;;;;;11.34;100.00;100402.44;10472218;28;20056;-80
2022/12/23 19:41:30;;;;;;;2.83;0.80;;;;;;;11.30;100.00;100416.13;10470042;28;20395;-80
2022/12/23 19:46:32;;;;;;;1.40;0.82;;;;;;;11.25;100.00;100420.34;10460002;28;20045;-81
2022/12/23 19:51:34;;;;;;;2.85;0.98;;;;;;;11.34;100.00;100433.41;10479757;28;20064;-80
2022/12/23 19:56:35;;;;;;;0.00;0.00;;;;;;;11.33;100.00;100435.94;10479236;28;20053;-79
2022/12/23 20:01:37;;;;;;;0.28;0.17;;;;;;;11.29;100.00;100445.34;10487939;28;20055;-80
2022/12/23 20:06:40;;;;;;;8.68;0.85;;;;;;;11.32;100.00;100450.56;10461977;28;20047;-81
2022/12/23 20:11:44;;;;;;;14.35;0.60;;;;;;;11.40;100.00;100448.97;10463883;28;20408;-79
2022/12/23 20:16:47;;;;;;;0.17;0.15;;;;;;;11.30;100.00;100447.06;10466984;28;20094;-80
2022/12/23 20:21:49;;;;;;;1.92;0.10;;;;;;;11.43;100.00;100449.00;10475337;28;20101;-80
2022/12/23 20:26:50;;;;;;;0.00;0.00;;;;;;;11.37;100.00;100443.75;10481676;28;20044;-80
2022/12/23 20:31:52;;;;;;;0.50;0.40;;;;;;;11.37;100.00;100474.69;10496260;28;20049;-80
2022/12/23 20:36:53;;;;;;;0.10;0.10;;;;;;;11.26;100.00;100481.41;10453235;28;20037;-80
2022/12/23 20:41:56;;;;;;;2.63;0.80;;;;;;;11.29;100.00;100491.75;10492980;28;20052;-79
2022/12/23 20:46:57;;;;;;;1.13;0.38;;;;;;;11.36;100.00;100509.06;10470538;28;20045;-81
2022/12/23 20:51:59;;;;;;;0.95;0.68;;;;;;;11.37;100.00;100517.69;10455398;28;20199;-79
2022/12/23 20:57:01;;;;;;;0.60;0.45;;;;;;;11.37;100.00;100518.53;10473202;28;20109;-79
2022/12/23 21:02:03;;;;;;;0.17;0.17;;;;;;;11.39;100.00;100514.28;10460642;28;20045;-79
2022/12/23 21:07:05;;;;;;;0.00;0.00;;;;;;;11.32;100.00;100525.34;10496459;28;20123;-79
2022/12/23 21:12:06;;;;;;;0.00;0.00;;;;;;;11.33;100.00;100529.66;10496372;28;20044;-80
2022/12/23 21:17:08;;;;;;;1.27;0.50;;;;;;;11.27;100.00;100545.03;10491013;28;20070;-80
2022/12/23 21:22:10;;;;;;;2.72;1.27;;;;;;;11.10;100.00;100542.13;10479927;28;20042;-79
2022/12/23 21:27:11;;;;;;;0.45;0.35;;;;;;;11.18;100.00;100540.56;10481550;28;20102;-80
2022/12/23 21:32:13;;;;;;;0.00;0.00;;;;;;;11.11;100.00;100539.59;10469630;28;20040;-81
2022/12/23 21:37:14;;;;;;;0.20;0.10;;;;;;;11.06;100.00;100554.09;10453842;28;20436;-80
2022/12/23 21:42:17;;;;;;;1.55;0.98;;;;;;;11.05;100.00;100565.28;10487094;28;20443;-80
2022/12/23 21:47:19;;;;;;;1.55;0.43;;;;;;;11.10;100.00;100563.66;10467203;28;20492;-79
2022/12/23 21:52:23;;;;;;;4.10;0.90;;;;;;;11.08;100.00;100570.47;10477398;28;20045;-80
2022/12/23 21:57:26;;;;;;;0.20;0.20;;;;;;;11.08;100.00;100573.06;10471342;28;20078;-80
2022/12/23 22:02:28;;;;;;;1.88;0.45;;;;;;;11.02;100.00;100565.22;10481659;28;20064;-79
2022/12/23 22:07:30;;;;;;;0.00;0.00;;;;;;;11.01;100.00;100575.50;10488474;28;20097;-79
2022/12/23 22:12:31;;;;;;;0.40;0.30;;;;;;;10.96;100.00;100575.41;10476709;28;20102;-79
2022/12/23 22:17:33;;;;;;;0.03;0.03;;;;;;;10.88;100.00;100579.56;10483325;28;20581;-80
2022/12/23 22:22:34;;;;;;;0.08;0.08;;;;;;;10.72;100.00;100596.44;10482527;28;20098;-81
2022/12/23 22:27:36;;;;;;;0.08;0.05;;;;;;;10.71;100.00;100600.69;10484573;28;20128;-80
2022/12/23 22:32:37;;;;;;;0.00;0.00;;;;;;;10.75;100.00;100611.94;10501015;28;20105;-79
2022/12/23 22:37:43;;;;;;;0.00;0.00;;;;;;;10.70;100.00;100622.13;10476052;28;20040;-80
2022/12/23 22:42:44;;;;;;;0.90;0.63;;;;;;;10.69;100.00;100622.97;10470990;28;20041;-80
2022/12/23 22:47:46;;;;;;;0.17;0.17;;;;;;;10.77;100.00;100634.31;10484416;28;20068;-80
2022/12/23 22:52:47;;;;;;;1.50;0.40;;;;;;;10.83;100.00;100637.88;10483665;28;20420;-80
2022/12/23 22:57:49;;;;;;;4.95;1.10;;;;;;;10.73;100.00;100635.09;10500601;28;20493;-80
2022/12/23 23:02:50;;;;;;;0.32;0.32;;;;;;;10.94;100.00;100638.94;10483506;28;20105;-80
2022/12/23 23:07:52;;;;;;;5.47;0.65;;;;;;;10.82;100.00;100638.69;10483476;28;20032;-80
2022/12/23 23:12:54;;;;;;;0.15;0.15;;;;;;;10.59;100.00;100655.41;10481526;28;20471;-80
2022/12/23 23:17:55;;;;;;;1.00;0.65;;;;;;;10.77;100.00;100657.50;10483716;28;20037;-79
2022/12/23 23:22:59;;;;;;;0.05;0.05;;;;;;;10.63;100.00;100664.06;10500215;28;20043;-80
2022/12/23 23:28:01;;;;;;;1.08;1.05;;;;;;;10.69;100.00;100671.91;10470541;28;20416;-80
2022/12/23 23:33:03;;;;;;;0.00;0.00;;;;;;;10.72;100.00;100664.28;10481404;28;20126;-79
2022/12/23 23:38:05;;;;;;;0.00;0.00;;;;;;;10.72;100.00;100589.56;10496069;28;20032;-79
2022/12/23 23:43:07;;;;;;;0.00;0.00;;;;;;;10.71;100.00;100574.94;10475275;28;20070;-79
2022/12/23 23:48:10;;;;;;;0.13;0.08;;;;;;;10.78;100.00;100561.31;10488159;28;20044;-80
2022/12/23 23:53:14;;;;;;;0.50;0.30;;;;;;;10.75;100.00;100556.13;10490215;28;20063;-80
2022/12/23 23:58:16;;;;;;;2.20;0.20;;;;;;;10.85;100.00;100566.59;10480936;28;20102;-79
